Time;durP1;ratioP1;P1;durP2;ratioP2;P2;SDS_P1;SDS_P2;PMS_P1;PMS_P2;Temp;Humidity;BMP_temperature;BMP_pressure;BME280_temperature;BME280_humidity;BME280_pressure;Samples;Min_cycle;Max_cycle;Signal;HPM_P1;HPM_P2
2022/10/22 00:00:43;;;;;;;8.00;4.40;;;;;;;11.59;95.01;100858.31;5010706;28;20042;-70
2022/10/22 00:03:10;;;;;;;10.20;5.03;;;;;;;11.57;95.00;100854.88;4999391;28;20512;-70
2022/10/22 00:05:37;;;;;;;8.13;4.90;;;;;;;11.56;95.12;100861.06;5010619;28;20495;-70
2022/10/22 00:08:04;;;;;;;15.07;5.68;;;;;;;11.55;95.34;100856.69;5002775;28;20054;-70
2022/10/22 00:10:31;;;;;;;9.13;5.18;;;;;;;11.55;95.37;100859.34;5009977;28;20472;-70
2022/10/22 00:12:59;;;;;;;12.27;5.22;;;;;;;11.56;95.65;100857.53;5005191;28;20038;-70
2022/10/22 00:15:26;;;;;;;15.85;5.55;;;;;;;11.55;95.49;100872.53;5003937;28;20054;-69
2022/10/22 00:17:53;;;;;;;9.57;5.68;;;;;;;11.54;95.68;100865.53;5007311;28;20531;-70
2022/10/22 00:20:21;;;;;;;9.90;5.50;;;;;;;11.54;95.71;100860.25;5011752;28;20042;-70
2022/10/22 00:22:48;;;;;;;9.55;5.63;;;;;;;11.54;95.69;100856.75;5020298;28;20054;-70
2022/10/22 00:25:21;;;;;;;11.95;5.65;;;;;;;11.55;95.94;100866.41;5009456;28;20497;-70
2022/10/22 00:27:48;;;;;;;16.67;6.00;;;;;;;11.55;96.16;100866.41;5009477;28;20064;-70
2022/10/22 00:30:15;;;;;;;14.75;6.13;;;;;;;11.55;96.17;100861.13;5010033;28;20042;-70
2022/10/22 00:32:42;;;;;;;17.30;6.35;;;;;;;11.54;96.19;100860.25;5007787;28;20046;-70
2022/10/22 00:35:09;;;;;;;13.65;5.50;;;;;;;11.53;96.34;100858.50;5012314;28;20042;-69
2022/10/22 00:37:36;;;;;;;12.80;6.13;;;;;;;11.53;96.40;100863.78;5008908;28;20042;-70
2022/10/22 00:40:04;;;;;;;13.30;6.13;;;;;;;11.55;96.60;100854.06;5009035;28;20054;-70
2022/10/22 00:42:31;;;;;;;10.18;5.40;;;;;;;11.55;96.83;100854.06;5012452;28;20603;-70
2022/10/22 00:45:01;;;;;;;12.85;6.07;;;;;;;11.59;97.05;100858.31;5003451;28;20045;-70
2022/10/22 00:47:56;;;;;;;14.65;5.85;;;;;;;11.62;97.19;100852.06;5008477;28;20047;-70
2022/10/22 00:50:31;;;;;;;14.30;5.95;;;;;;;11.64;97.36;100845.81;5013821;28;20122;-70
2022/10/22 00:53:03;;;;;;;10.15;6.13;;;;;;;11.65;97.35;100844.03;4996734;28;20094;-70
2022/10/22 00:55:32;;;;;;;10.60;5.68;;;;;;;11.64;97.42;100852.88;4996859;28;20051;-70
2022/10/22 00:58:01;;;;;;;10.13;5.85;;;;;;;11.64;97.78;100853.72;4999674;28;20045;-70
2022/10/22 01:00:28;;;;;;;12.25;6.35;;;;;;;11.65;97.62;100850.19;5012151;28;20125;-70
2022/10/22 01:02:57;;;;;;;9.13;5.30;;;;;;;11.67;97.70;100854.53;5012061;28;20104;-70
2022/10/22 01:05:29;;;;;;;14.32;6.25;;;;;;;11.67;97.79;100857.19;5013993;28;20073;-70
2022/10/22 01:07:56;;;;;;;12.25;6.18;;;;;;;11.67;98.14;100858.03;5011525;28;20574;-71
2022/10/22 01:10:50;;;;;;;12.65;5.78;;;;;;;11.72;98.06;100868.44;5011916;28;20038;-70
2022/10/22 01:13:52;;;;;;;9.18;6.10;;;;;;;11.74;98.36;100864.84;5008207;28;20042;-70
2022/10/22 01:16:42;;;;;;;11.77;6.15;;;;;;;11.75;98.24;100874.47;5011119;28;20043;-70
2022/10/22 01:19:22;;;;;;;9.35;5.75;;;;;;;11.77;98.44;100869.16;5002885;28;20057;-69
2022/10/22 01:22:13;;;;;;;9.32;5.50;;;;;;;11.78;98.49;100855.03;5019790;28;20038;-69
2022/10/22 01:24:57;;;;;;;9.52;5.38;;;;;;;11.79;98.66;100851.47;5009044;28;20050;-69
2022/10/22 01:28:12;;;;;;;9.45;5.60;;;;;;;11.83;98.78;100852.22;5015105;28;20038;-69
2022/10/22 01:30:41;;;;;;;10.07;5.43;;;;;;;11.81;98.84;100855.78;4994168;28;20055;-70
2022/10/22 01:33:13;;;;;;;9.77;5.47;;;;;;;11.83;98.87;100854.88;5006506;28;20038;-70
2022/10/22 01:35:44;;;;;;;10.43;5.13;;;;;;;11.82;98.73;100861.91;5011789;28;20062;-70
2022/10/22 01:38:21;;;;;;;9.77;5.22;;;;;;;11.80;98.87;100859.34;5017259;28;20138;-70
2022/10/22 01:40:50;;;;;;;8.60;5.65;;;;;;;11.79;99.02;100854.97;5007459;28;20077;-70
2022/10/22 01:43:17;;;;;;;9.15;4.97;;;;;;;11.79;98.95;100854.13;5007952;28;20047;-70
2022/10/22 01:45:55;;;;;;;10.95;4.63;;;;;;;11.83;98.86;100857.50;5007366;28;20045;-70
2022/10/22 01:48:42;;;;;;;9.80;4.85;;;;;;;11.79;98.82;100844.41;5003348;28;20050;-70
2022/10/22 01:51:33;;;;;;;5.93;4.57;;;;;;;11.78;98.95;100847.13;5011689;28;20042;-69
2022/10/22 01:54:29;;;;;;;10.48;5.30;;;;;;;11.76;98.82;100846.31;5009747;28;20548;-70
2022/10/22 01:57:22;;;;;;;12.02;4.43;;;;;;;11.73;98.76;100844.63;5014666;28;20034;-69
2022/10/22 02:00:12;;;;;;;10.38;4.78;;;;;;;11.69;98.64;100844.81;5009717;28;20054;-70
2022/10/22 02:02:58;;;;;;;8.25;4.53;;;;;;;11.64;98.82;100837.03;5002316;28;20046;-70
2022/10/22 02:05:36;;;;;;;8.57;4.57;;;;;;;11.63;98.88;100840.59;5007126;28;20038;-70
2022/10/22 02:08:18;;;;;;;10.88;4.68;;;;;;;11.65;98.97;100846.66;5011377;28;20046;-70
2022/10/22 02:10:48;;;;;;;11.52;4.72;;;;;;;11.64;98.99;100843.16;5009038;28;20090;-70
2022/10/22 02:13:23;;;;;;;8.82;4.90;;;;;;;11.63;99.12;100844.09;5014708;28;20038;-70
2022/10/22 02:15:53;;;;;;;6.90;4.50;;;;;;;11.64;98.88;100852.88;5010251;28;20046;-70
2022/10/22 02:18:29;;;;;;;11.23;5.00;;;;;;;11.64;99.16;100848.44;5011233;28;20054;-70
2022/10/22 02:20:59;;;;;;;9.73;4.53;;;;;;;11.63;99.05;100845.88;5008764;28;20049;-70
2022/10/22 02:23:27;;;;;;;9.88;5.40;;;;;;;11.61;98.93;100848.53;5011766;28;20055;-70
2022/10/22 02:26:22;;;;;;;17.10;5.03;;;;;;;11.61;99.10;100851.19;5008754;28;20461;-70
2022/10/22 02:29:14;;;;;;;10.93;4.55;;;;;;;11.60;99.05;100849.47;5009255;28;20046;-70
2022/10/22 02:31:45;;;;;;;8.32;4.82;;;;;;;11.57;99.03;100840.78;4999518;28;20042;-70
2022/10/22 02:34:20;;;;;;;11.32;4.40;;;;;;;11.57;99.24;100848.72;5008832;28;20038;-70
2022/10/22 02:36:49;;;;;;;11.95;4.53;;;;;;;11.55;99.17;100846.13;5016440;28;20065;-70
2022/10/22 02:39:19;;;;;;;10.57;4.68;;;;;;;11.52;99.18;100840.94;5009421;28;20050;-70
2022/10/22 02:41:47;;;;;;;9.80;4.60;;;;;;;11.51;99.23;100841.84;5006552;28;20049;-70
2022/10/22 02:44:21;;;;;;;15.15;5.28;;;;;;;11.53;99.42;100841.81;5010559;28;20476;-70
2022/10/22 02:46:48;;;;;;;9.47;4.93;;;;;;;11.49;99.33;100844.56;5009604;28;20097;-69
2022/10/22 02:49:16;;;;;;;9.35;4.72;;;;;;;11.48;99.30;100840.19;5014168;28;20351;-69
2022/10/22 02:51:44;;;;;;;9.50;5.10;;;;;;;11.47;99.30;100843.75;5016584;28;20419;-70
2022/10/22 02:54:11;;;;;;;11.32;5.15;;;;;;;11.48;99.50;100837.56;5007289;28;20053;-70
2022/10/22 02:56:38;;;;;;;11.13;5.68;;;;;;;11.49;99.42;100849.84;5013264;28;20460;-70
2022/10/22 02:59:05;;;;;;;9.73;5.13;;;;;;;11.50;99.60;100841.00;5003655;28;20045;-70
2022/10/22 03:01:32;;;;;;;12.07;5.68;;;;;;;11.51;99.56;100839.22;5010198;28;20097;-70
2022/10/22 03:03:59;;;;;;;12.32;5.70;;;;;;;11.53;99.65;100844.47;5010235;28;20073;-70
2022/10/22 03:06:26;;;;;;;9.35;6.05;;;;;;;11.54;99.63;100849.69;5009732;28;20046;-70
2022/10/22 03:08:55;;;;;;;13.98;5.85;;;;;;;11.54;99.62;100846.19;5009855;28;20050;-70
2022/10/22 03:11:22;;;;;;;10.00;6.18;;;;;;;11.54;99.65;100840.91;5005841;28;20043;-70
2022/10/22 03:13:49;;;;;;;11.88;5.88;;;;;;;11.54;99.74;100843.56;5003820;28;20050;-69
2022/10/22 03:16:16;;;;;;;9.18;5.72;;;;;;;11.54;99.69;100844.41;5006972;28;20198;-70
2022/10/22 03:18:43;;;;;;;11.40;5.60;;;;;;;11.55;99.82;100845.28;5009569;28;20041;-69
2022/10/22 03:21:30;;;;;;;10.55;5.25;;;;;;;11.56;99.41;100841.69;5006020;28;20117;-70
2022/10/22 03:24:01;;;;;;;13.10;5.13;;;;;;;11.54;99.77;100851.47;5008858;28;20851;-70
2022/10/22 03:26:29;;;;;;;11.10;5.60;;;;;;;11.54;99.87;100844.41;5006449;28;20034;-70
2022/10/22 03:28:56;;;;;;;11.55;5.88;;;;;;;11.56;99.96;100842.56;5009186;28;20043;-71
2022/10/22 03:31:23;;;;;;;8.40;5.75;;;;;;;11.57;99.97;100846.94;5015060;28;20038;-71
2022/10/22 03:33:50;;;;;;;10.70;5.85;;;;;;;11.61;99.98;100852.97;5009808;28;20042;-70
2022/10/22 03:36:19;;;;;;;13.60;5.60;;;;;;;11.63;100.00;100857.28;5019194;28;20068;-71
2022/10/22 03:38:46;;;;;;;10.57;5.90;;;;;;;11.63;100.00;100862.56;5010842;28;20464;-70
2022/10/22 03:41:13;;;;;;;10.70;5.75;;;;;;;11.63;99.93;100870.47;5007354;28;20042;-71
2022/10/22 03:43:41;;;;;;;10.77;5.70;;;;;;;11.63;99.98;100867.00;5007872;28;20046;-70
2022/10/22 03:46:08;;;;;;;10.82;5.55;;;;;;;11.64;99.83;100877.50;5014141;28;20089;-71
2022/10/22 03:48:35;;;;;;;12.35;5.97;;;;;;;11.65;99.91;100870.44;5007455;28;20613;-71
2022/10/22 03:51:03;;;;;;;10.15;6.18;;;;;;;11.64;99.91;100882.78;5003794;28;20168;-70
2022/10/22 03:53:30;;;;;;;13.77;5.70;;;;;;;11.65;99.91;100873.06;5004837;28;20650;-69
2022/10/22 03:55:57;;;;;;;14.30;6.03;;;;;;;11.65;99.80;100867.78;5013731;28;20050;-69
2022/10/22 03:58:24;;;;;;;9.70;5.03;;;;;;;11.64;99.68;100884.56;5009296;28;20042;-70
2022/10/22 04:00:51;;;;;;;8.82;5.70;;;;;;;11.64;99.75;100893.34;5005126;28;20057;-70
2022/10/22 04:03:18;;;;;;;11.95;5.28;;;;;;;11.62;99.68;100896.97;5009728;28;20124;-70
2022/10/22 04:05:48;;;;;;;11.63;5.30;;;;;;;11.61;99.61;100889.94;5010100;28;20038;-70
2022/10/22 04:08:15;;;;;;;8.88;4.80;;;;;;;11.58;99.64;100893.56;5008428;28;20049;-70
2022/10/22 04:10:51;;;;;;;11.40;4.80;;;;;;;11.59;99.78;100897.06;5007673;28;20594;-69
2022/10/22 04:13:18;;;;;;;14.55;5.78;;;;;;;11.55;99.65;100903.38;5001656;28;20046;-70
2022/10/22 04:15:46;;;;;;;11.23;5.57;;;;;;;11.54;99.76;100901.63;5014745;28;20042;-70
2022/10/22 04:18:13;;;;;;;13.95;5.43;;;;;;;11.53;99.65;100902.53;5018040;28;20053;-70
2022/10/22 04:20:40;;;;;;;13.48;5.93;;;;;;;11.52;99.74;100904.31;5007801;28;20042;-70
2022/10/22 04:23:07;;;;;;;9.93;5.05;;;;;;;11.50;99.67;100903.50;5009501;28;20062;-70
2022/10/22 04:25:35;;;;;;;9.82;5.60;;;;;;;11.49;99.72;100905.28;5011320;28;20393;-70
2022/10/22 04:28:04;;;;;;;10.60;5.72;;;;;;;11.46;99.65;100900.09;5013411;28;20049;-71
2022/10/22 04:30:31;;;;;;;14.15;5.82;;;;;;;11.45;99.78;100908.91;5017319;28;20092;-70
2022/10/22 04:32:58;;;;;;;10.32;5.63;;;;;;;11.43;99.69;100908.13;5011740;28;20108;-70
2022/10/22 04:35:26;;;;;;;11.10;5.82;;;;;;;11.43;99.76;100910.78;5010796;28;20042;-70
2022/10/22 04:37:54;;;;;;;14.98;5.82;;;;;;;11.42;99.71;100905.53;5013166;28;20042;-71
2022/10/22 04:40:21;;;;;;;12.75;6.25;;;;;;;11.40;99.85;100909.97;5012609;28;20132;-71
2022/10/22 04:42:48;;;;;;;12.88;5.97;;;;;;;11.40;99.84;100909.97;5012620;28;20482;-70
2022/10/22 04:45:15;;;;;;;14.30;6.20;;;;;;;11.40;99.86;100910.88;5008288;28;20856;-71
2022/10/22 04:47:42;;;;;;;12.80;6.20;;;;;;;11.39;99.83;100903.00;5012349;28;20038;-71
2022/10/22 04:50:10;;;;;;;11.93;6.05;;;;;;;11.38;99.86;100903.91;5011822;28;20046;-70
2022/10/22 04:52:37;;;;;;;15.57;6.85;;;;;;;11.37;99.97;100904.81;5013843;28;20500;-72
2022/10/22 04:55:04;;;;;;;12.70;6.60;;;;;;;11.36;99.96;100906.59;5010345;28;20054;-70
2022/10/22 04:57:32;;;;;;;12.25;6.60;;;;;;;11.36;100.00;100908.38;5012903;28;20035;-70
2022/10/22 04:59:59;;;;;;;16.13;6.38;;;;;;;11.37;100.00;100913.59;5014336;28;20113;-70
2022/10/22 05:02:26;;;;;;;13.55;6.57;;;;;;;11.37;100.00;100904.81;5031992;28;20038;-70
2022/10/22 05:04:53;;;;;;;15.05;6.88;;;;;;;11.38;100.00;100915.31;5012189;28;20543;-71
2022/10/22 05:07:22;;;;;;;13.80;6.22;;;;;;;11.38;100.00;100917.13;5020176;28;20550;-70
2022/10/22 05:09:49;;;;;;;15.57;6.88;;;;;;;11.39;100.00;100918.84;5012386;28;20817;-71
2022/10/22 05:12:16;;;;;;;10.60;6.20;;;;;;;11.41;100.00;100920.50;5013119;28;20046;-71
2022/10/22 05:14:44;;;;;;;9.90;6.70;;;;;;;11.41;100.00;100925.78;5013213;28;20042;-71
2022/10/22 05:17:11;;;;;;;12.18;6.78;;;;;;;11.42;100.00;100921.38;5014140;28;20889;-71
2022/10/22 05:19:38;;;;;;;16.20;6.50;;;;;;;11.42;100.00;100914.31;5012185;28;20042;-70
2022/10/22 05:22:05;;;;;;;11.70;6.28;;;;;;;11.42;100.00;100916.97;5009271;28;20104;-71
2022/10/22 05:24:34;;;;;;;13.45;6.95;;;;;;;11.43;100.00;100925.72;5009264;28;20121;-70
2022/10/22 05:27:01;;;;;;;13.68;6.63;;;;;;;11.42;100.00;100927.53;5005834;28;20471;-71
2022/10/22 05:29:28;;;;;;;14.80;6.78;;;;;;;11.41;100.00;100931.06;5009179;28;20031;-70
2022/10/22 05:31:56;;;;;;;13.13;6.60;;;;;;;11.41;100.00;100922.28;5018979;28;20039;-70
2022/10/22 05:34:23;;;;;;;13.55;6.65;;;;;;;11.42;100.00;100924.00;5011460;28;20039;-70
2022/10/22 05:36:50;;;;;;;13.30;6.47;;;;;;;11.42;100.00;100924.88;5017372;28;20050;-71
2022/10/22 05:39:17;;;;;;;11.20;6.45;;;;;;;11.41;100.00;100933.72;5016752;28;20461;-71
2022/10/22 05:41:45;;;;;;;10.38;6.30;;;;;;;11.41;100.00;100930.19;5012949;28;20133;-70
2022/10/22 05:44:13;;;;;;;12.82;6.28;;;;;;;11.40;100.00;100928.47;5016146;28;20045;-70
2022/10/22 05:46:42;;;;;;;11.88;6.07;;;;;;;11.40;100.00;100934.63;5014105;28;20801;-70
2022/10/22 05:49:13;;;;;;;13.52;6.30;;;;;;;11.40;100.00;100925.81;5012417;28;20038;-70
2022/10/22 05:51:42;;;;;;;13.10;5.68;;;;;;;11.39;100.00;100942.59;5011151;28;20050;-71
2022/10/22 05:54:20;;;;;;;15.05;6.07;;;;;;;11.39;100.00;100939.97;5009259;28;20042;-70
2022/10/22 05:56:48;;;;;;;10.68;6.05;;;;;;;11.38;100.00;100947.00;5013160;28;20039;-70
2022/10/22 05:59:16;;;;;;;17.52;6.32;;;;;;;11.41;100.00;100949.53;5015806;28;20120;-69
2022/10/22 06:01:43;;;;;;;13.57;6.32;;;;;;;11.45;100.00;100950.31;5010678;28;20046;-71
2022/10/22 06:04:12;;;;;;;14.75;6.53;;;;;;;11.52;100.00;100946.53;5010617;28;20049;-70
2022/10/22 06:06:49;;;;;;;13.77;6.15;;;;;;;11.60;100.00;100956.88;5010695;28;21759;-72
2022/10/22 06:09:25;;;;;;;10.90;6.20;;;;;;;11.68;100.00;100957.47;5009370;28;20134;-71
2022/10/22 06:11:54;;;;;;;11.60;6.00;;;;;;;11.77;100.00;100958.97;5010586;28;20788;-71
2022/10/22 06:14:23;;;;;;;10.68;5.43;;;;;;;11.85;100.00;100966.63;5008217;28;20074;-71
2022/10/22 06:16:51;;;;;;;16.13;5.45;;;;;;;11.95;100.00;100970.69;5009781;28;20039;-70
2022/10/22 06:19:21;;;;;;;12.18;4.72;;;;;;;12.07;100.00;100972.91;5012912;28;20093;-71
2022/10/22 06:21:48;;;;;;;16.90;5.70;;;;;;;12.20;100.00;100968.09;5042926;28;20107;-70
2022/10/22 06:24:15;;;;;;;13.63;4.97;;;;;;;12.33;100.00;100970.28;5016235;28;20054;-71
2022/10/22 06:26:42;;;;;;;16.38;5.43;;;;;;;12.38;100.00;100977.13;5014021;28;20042;-71
2022/10/22 06:29:10;;;;;;;13.07;5.13;;;;;;;12.45;100.00;100977.78;5022752;28;20041;-70
2022/10/22 06:31:37;;;;;;;8.68;4.70;;;;;;;12.54;100.00;100979.25;5016217;28;20042;-71
2022/10/22 06:34:09;;;;;;;9.25;4.60;;;;;;;12.64;100.00;100985.03;5024458;28;20524;-71
2022/10/22 06:36:37;;;;;;;11.20;4.40;;;;;;;12.69;100.00;100991.03;5013735;28;20078;-71
2022/10/22 06:39:04;;;;;;;9.88;4.00;;;;;;;12.70;100.00;100996.25;5020005;28;20459;-70
2022/10/22 06:41:32;;;;;;;10.75;4.80;;;;;;;12.73;100.00;100988.22;5012733;28;20038;-70
2022/10/22 06:43:59;;;;;;;10.95;3.60;;;;;;;12.79;100.00;101004.78;5010178;28;22363;-70
2022/10/22 06:46:26;;;;;;;9.90;3.80;;;;;;;12.84;100.00;101008.13;5020029;28;20530;-70
2022/10/22 06:49:01;;;;;;;10.52;3.92;;;;;;;12.88;100.00;101012.38;5014267;28;20387;-70
2022/10/22 06:51:28;;;;;;;10.35;4.38;;;;;;;12.91;100.00;101016.69;5020687;28;20038;-70
2022/10/22 06:53:57;;;;;;;11.15;3.75;;;;;;;12.93;100.00;101023.66;5012498;28;20042;-70
2022/10/22 06:56:28;;;;;;;12.23;3.70;;;;;;;12.92;99.84;101023.72;5005208;28;20445;-70
2022/10/22 06:58:57;;;;;;;7.78;3.60;;;;;;;12.96;99.69;101030.59;5023132;28;20053;-70
2022/10/22 07:01:33;;;;;;;7.80;3.30;;;;;;;12.96;99.45;101034.13;5011544;28;20051;-71
2022/10/22 07:04:02;;;;;;;8.57;3.55;;;;;;;12.97;99.42;101040.28;5010818;28;20049;-72
2022/10/22 07:06:31;;;;;;;7.35;3.85;;;;;;;12.98;99.24;101036.72;5015418;28;20065;-70
2022/10/22 07:08:59;;;;;;;12.98;3.60;;;;;;;13.00;99.11;101035.72;5011560;28;20042;-70
2022/10/22 07:11:39;;;;;;;6.88;3.10;;;;;;;13.08;98.87;101039.88;5011893;28;20512;-70
2022/10/22 07:14:07;;;;;;;10.48;3.08;;;;;;;13.22;98.87;101042.00;5008949;28;20073;-70
2022/10/22 07:16:34;;;;;;;9.93;3.33;;;;;;;13.36;98.75;101042.31;5015069;28;20054;-71
2022/10/22 07:19:04;;;;;;;9.40;3.30;;;;;;;13.47;98.92;101050.75;5013412;28;20057;-71
2022/10/22 07:21:31;;;;;;;6.43;2.80;;;;;;;13.59;98.89;101046.75;5010233;28;20480;-72
2022/10/22 07:23:59;;;;;;;9.52;2.90;;;;;;;13.70;98.82;101048.09;5010362;28;20054;-72
2022/10/22 07:26:31;;;;;;;10.13;3.13;;;;;;;13.79;98.74;101053.91;5016849;28;20069;-71
2022/10/22 07:28:59;;;;;;;8.05;2.80;;;;;;;13.89;98.24;101056.19;5010145;28;20436;-70
2022/10/22 07:31:27;;;;;;;9.88;3.10;;;;;;;13.96;97.95;101062.94;5011535;28;20515;-70
2022/10/22 07:33:54;;;;;;;5.65;2.75;;;;;;;14.05;97.76;101059.91;5009296;28;20050;-70
2022/10/22 07:36:21;;;;;;;6.68;2.88;;;;;;;14.13;97.70;101064.91;5020440;28;20611;-72
2022/10/22 07:38:55;;;;;;;9.48;2.80;;;;;;;14.20;97.00;101074.31;5016714;28;20543;-70
2022/10/22 07:41:25;;;;;;;8.07;2.78;;;;;;;14.22;96.36;101077.78;5013945;28;20043;-71
2022/10/22 07:43:56;;;;;;;7.15;2.22;;;;;;;14.23;96.21;101079.50;5007301;28;20120;-71
2022/10/22 07:46:25;;;;;;;13.57;2.83;;;;;;;14.25;96.09;101084.75;5017217;28;20041;-70
2022/10/22 07:48:53;;;;;;;8.70;2.70;;;;;;;14.25;95.89;101090.03;5019327;28;20117;-70
2022/10/22 07:51:20;;;;;;;7.57;2.72;;;;;;;14.26;95.54;101081.16;5007678;28;20035;-70
2022/10/22 07:53:48;;;;;;;9.82;2.88;;;;;;;14.26;94.98;101092.66;5013277;28;20050;-69
2022/10/22 07:56:16;;;;;;;9.52;3.03;;;;;;;14.28;95.09;101095.22;5017664;28;20038;-69
2022/10/22 07:58:43;;;;;;;9.18;3.03;;;;;;;14.32;95.16;101096.84;5009750;28;20114;-70
2022/10/22 08:01:11;;;;;;;8.35;2.85;;;;;;;14.34;95.10;101096.75;5008896;28;20046;-69
2022/10/22 08:03:39;;;;;;;9.02;2.55;;;;;;;14.39;94.74;101106.25;5025385;28;20042;-71
2022/10/22 08:06:08;;;;;;;12.68;2.75;;;;;;;14.45;94.79;101113.09;5011363;28;20046;-71
2022/10/22 08:08:35;;;;;;;9.05;2.85;;;;;;;14.48;94.52;101104.13;5017725;28;20839;-71
2022/10/22 08:11:03;;;;;;;7.53;2.28;;;;;;;14.47;94.18;101118.31;5010267;28;20049;-70
2022/10/22 08:13:30;;;;;;;8.77;2.60;;;;;;;14.43;94.05;101110.50;5015468;28;20047;-70
2022/10/22 08:15:59;;;;;;;11.75;2.40;;;;;;;14.38;93.90;101117.78;5026761;28;20051;-70
2022/10/22 08:18:27;;;;;;;8.63;2.42;;;;;;;14.32;93.82;101118.06;5016849;28;20113;-71
2022/10/22 08:20:55;;;;;;;7.03;2.53;;;;;;;14.38;93.45;101116.94;5015919;28;20125;-70
2022/10/22 08:23:22;;;;;;;8.05;2.53;;;;;;;14.46;93.37;101122.78;5009066;28;20054;-70
2022/10/22 08:25:56;;;;;;;7.03;2.20;;;;;;;14.59;93.37;101128.41;5014409;28;20053;-69
2022/10/22 08:28:23;;;;;;;8.10;2.10;;;;;;;14.71;92.98;101124.41;5016229;28;20129;-70
2022/10/22 08:30:50;;;;;;;6.43;2.30;;;;;;;14.83;92.57;101126.53;5012499;28;20043;-70
2022/10/22 08:33:17;;;;;;;6.55;2.38;;;;;;;14.97;92.01;101133.03;5008367;28;20038;-70
2022/10/22 08:35:51;;;;;;;10.23;2.20;;;;;;;15.08;91.78;101128.09;5013499;28;20042;-70
2022/10/22 08:38:20;;;;;;;;;;;;;;;15.15;91.93;101132.19;5013155;28;20780;-70
2022/10/22 08:41:02;;;;;;;8.52;2.35;;;;;;;15.28;91.93;101132.50;5012488;28;19961;-70
2022/10/22 08:44:16;;;;;;;10.75;1.90;;;;;;;15.41;90.91;101139.91;5012961;28;20145;-71
2022/10/22 08:47:02;;;;;;;8.05;2.20;;;;;;;15.51;90.36;101134.13;5020095;28;20050;-70
2022/10/22 08:49:35;;;;;;;8.68;1.70;;;;;;;15.60;90.03;101142.59;5012675;28;20045;-70
2022/10/22 08:52:14;;;;;;;7.20;2.00;;;;;;;15.68;89.70;101143.09;5007403;28;20043;-71
2022/10/22 08:54:52;;;;;;;7.47;1.85;;;;;;;15.76;89.04;101143.59;5017842;28;20034;-69
2022/10/22 08:57:55;;;;;;;8.23;2.40;;;;;;;15.89;88.39;101146.53;5015605;28;20050;-70
2022/10/22 09:00:36;;;;;;;5.88;1.90;;;;;;;16.06;86.39;101144.91;5008908;28;20046;-70
2022/10/22 09:03:35;;;;;;;10.25;1.80;;;;;;;16.13;85.82;101163.13;4999755;28;20046;-70
2022/10/22 09:06:17;;;;;;;11.40;2.05;;;;;;;16.17;86.22;101157.66;5010329;28;20045;-74
2022/10/22 09:08:46;;;;;;;9.50;2.10;;;;;;;16.37;85.49;101157.53;5012127;28;20050;-73
2022/10/22 09:11:27;;;;;;;6.32;1.80;;;;;;;16.47;84.52;101168.59;5010304;28;20046;-72
2022/10/22 09:13:56;;;;;;;11.45;2.15;;;;;;;16.51;84.16;101174.63;5014060;28;20097;-70
2022/10/22 09:16:52;;;;;;;7.78;1.90;;;;;;;16.51;83.89;101172.81;5013597;28;20643;-70
2022/10/22 09:19:43;;;;;;;9.15;1.83;;;;;;;16.54;83.23;101171.78;5011600;28;20046;-72
2022/10/22 09:22:45;;;;;;;8.02;1.85;;;;;;;16.55;83.05;101176.16;5015721;28;20101;-72
2022/10/22 09:25:26;;;;;;;4.30;1.58;;;;;;;16.57;83.44;101179.63;5025965;28;20057;-71
2022/10/22 09:27:57;;;;;;;8.80;2.00;;;;;;;16.58;83.75;101176.88;5013448;28;20046;-70
2022/10/22 09:30:33;;;;;;;6.88;1.90;;;;;;;16.62;82.97;101188.25;5029935;28;20072;-73
2022/10/22 09:33:13;;;;;;;8.57;1.88;;;;;;;16.59;83.11;101193.72;5006749;28;21003;-71
2022/10/22 09:35:55;;;;;;;4.93;2.08;;;;;;;16.57;83.48;101185.81;5013192;28;20468;-70
2022/10/22 09:38:30;;;;;;;10.63;1.80;;;;;;;16.58;83.63;101194.66;5016859;28;20042;-69
2022/10/22 09:41:02;;;;;;;9.55;1.90;;;;;;;16.59;82.88;101196.38;5023196;28;20197;-71
2022/10/22 09:43:32;;;;;;;7.05;1.60;;;;;;;16.58;82.28;101200.81;5038249;28;20049;-74
2022/10/22 09:46:03;;;;;;;6.13;1.70;;;;;;;16.56;82.42;101197.41;5015444;28;20122;-71
2022/10/22 09:48:41;;;;;;;11.20;1.52;;;;;;;16.55;82.54;101205.44;5017052;28;20039;-71
2022/10/22 09:51:36;;;;;;;8.27;1.73;;;;;;;16.54;82.40;101209.03;5020303;28;20038;-72
2022/10/22 09:54:23;;;;;;;7.20;1.60;;;;;;;16.49;82.16;101219.91;5026575;28;20034;-73
2022/10/22 09:57:16;;;;;;;8.70;1.50;;;;;;;16.44;82.23;101216.63;5021609;28;20100;-71
2022/10/22 09:59:51;;;;;;;10.35;2.10;;;;;;;16.42;81.92;101223.81;5036149;28;20034;-72
2022/10/22 10:02:27;;;;;;;9.60;1.60;;;;;;;16.41;82.24;101236.28;5011646;28;20085;-70
2022/10/22 10:05:19;;;;;;;8.43;1.92;;;;;;;16.40;81.91;101241.66;5010310;28;20049;-70
2022/10/22 10:07:47;;;;;;;12.85;2.03;;;;;;;16.35;81.26;101241.88;5010564;28;20520;-71
2022/10/22 10:10:35;;;;;;;8.98;1.83;;;;;;;16.30;80.81;101242.09;5014274;28;20101;-72
2022/10/22 10:13:42;;;;;;;6.93;1.67;;;;;;;16.27;82.21;101244.06;5025217;28;20042;-74
2022/10/22 10:16:18;;;;;;;8.38;1.83;;;;;;;16.26;82.48;101248.53;5009474;28;20571;-71
2022/10/22 10:19:08;;;;;;;5.18;1.42;;;;;;;16.26;82.82;101251.19;5016489;28;20047;-72
2022/10/22 10:21:56;;;;;;;9.50;1.90;;;;;;;16.32;82.90;101250.03;5017740;28;20038;-73
2022/10/22 10:24:41;;;;;;;9.95;1.90;;;;;;;16.52;81.92;101254.38;5011329;28;20049;-73
2022/10/22 10:27:22;;;;;;;7.40;1.80;;;;;;;16.71;81.82;101257.00;5006504;28;20117;-70
2022/10/22 10:30:13;;;;;;;5.72;1.70;;;;;;;16.87;80.66;101264.22;5012093;28;20158;-71
2022/10/22 10:33:11;;;;;;;11.40;2.17;;;;;;;16.97;80.93;101262.00;5015763;28;20570;-71
2022/10/22 10:36:05;;;;;;;5.88;1.70;;;;;;;17.06;80.73;101270.34;5011464;28;20627;-71
2022/10/22 10:38:41;;;;;;;6.57;1.70;;;;;;;17.17;80.41;101272.50;5026711;28;20047;-70
2022/10/22 10:41:51;;;;;;;9.23;1.88;;;;;;;17.34;79.30;101274.28;5011650;28;20533;-72
2022/10/22 10:45:13;;;;;;;8.23;1.80;;;;;;;17.49;78.20;101274.41;5010616;28;20073;-69
2022/10/22 10:48:11;;;;;;;7.97;1.67;;;;;;;17.58;77.67;101278.41;5009133;28;20053;-70
2022/10/22 10:51:05;;;;;;;12.52;1.85;;;;;;;17.58;78.48;101281.06;5009417;28;20130;-69
2022/10/22 10:53:52;;;;;;;9.95;1.70;;;;;;;17.60;78.55;101276.53;5011680;28;20035;-70
2022/10/22 10:56:40;;;;;;;12.95;1.65;;;;;;;17.57;78.60;101287.34;5007038;28;20055;-69
2022/10/22 10:59:21;;;;;;;5.38;1.30;;;;;;;17.59;77.91;101282.78;5009196;28;20560;-71
2022/10/22 11:02:07;;;;;;;8.40;1.60;;;;;;;17.60;77.10;101279.19;5010644;28;20143;-70
2022/10/22 11:05:04;;;;;;;9.32;1.60;;;;;;;17.57;77.86;101282.84;5007452;28;20072;-71
2022/10/22 11:07:46;;;;;;;;;;;;;;;17.62;77.92;101279.94;5010392;28;20043;-71
2022/10/22 11:10:56;;;;;;;6.13;1.73;;;;;;;17.75;76.42;101285.50;5010547;28;20689;-71
2022/10/22 11:13:35;;;;;;;10.20;1.80;;;;;;;17.75;76.51;101277.50;5009340;28;20045;-70
2022/10/22 11:16:44;;;;;;;9.70;1.60;;;;;;;17.94;76.07;101280.91;5008127;28;20078;-70
2022/10/22 11:19:37;;;;;;;5.95;1.70;;;;;;;18.02;75.85;101287.66;5010825;28;20062;-69
2022/10/22 11:22:44;;;;;;;8.95;1.80;;;;;;;18.06;74.67;101282.06;5010303;28;20623;-68
2022/10/22 11:25:44;;;;;;;7.43;1.55;;;;;;;18.28;74.36;101284.38;5008080;28;20077;-69
2022/10/22 11:28:41;;;;;;;10.48;2.13;;;;;;;18.45;74.54;101278.09;5010963;28;20515;-69
2022/10/22 11:31:16;;;;;;;6.72;1.50;;;;;;;18.47;73.02;101291.34;5010424;28;20082;-70
2022/10/22 11:33:52;;;;;;;10.70;2.00;;;;;;;18.52;73.01;101285.78;5023806;28;20038;-69
2022/10/22 11:36:41;;;;;;;5.32;1.50;;;;;;;18.53;73.31;101283.03;5006313;28;20038;-69
2022/10/22 11:39:43;;;;;;;5.93;1.50;;;;;;;18.51;73.88;101278.72;5013038;28;20070;-70
2022/10/22 11:42:22;;;;;;;9.48;1.63;;;;;;;18.54;73.02;101287.41;5009256;28;20038;-68
2022/10/22 11:45:14;;;;;;;4.75;1.40;;;;;;;18.54;72.06;101275.84;5012798;28;20046;-69
2022/10/22 11:48:09;;;;;;;8.70;1.77;;;;;;;18.65;72.95;101286.78;5007766;28;20058;-68
2022/10/22 11:50:56;;;;;;;8.10;1.50;;;;;;;18.75;72.47;101271.09;5006692;28;20046;-69
2022/10/22 11:53:33;;;;;;;8.88;1.63;;;;;;;18.71;71.47;101278.44;5008626;28;20044;-69